Time;durP1;ratioP1;P1;durP2;ratioP2;P2;SDS_P1;SDS_P2;PMS_P1;PMS_P2;Temp;Humidity;BMP_temperature;BMP_pressure;BME280_temperature;BME280_humidity;BME280_pressure;Samples;Min_cycle;Max_cycle;Signal;HPM_P1;HPM_P2
2023/07/04 00:01:10;;;;;;;10.10;5.33;;;18.80;25.80;;;;;;4997267;28;46460;-78
2023/07/04 00:03:36;;;;;;;11.50;5.10;;;18.80;26.30;;;;;;5004592;28;46506;-84
2023/07/04 00:06:04;;;;;;;12.37;5.43;;;18.60;26.70;;;;;;5005230;28;46525;-79
2023/07/04 00:08:35;;;;;;;13.73;5.40;;;18.60;26.80;;;;;;4985256;28;48241;-80
2023/07/04 00:11:04;;;;;;;14.53;5.50;;;18.60;27.10;;;;;;4987290;28;46955;-79
2023/07/04 00:13:31;;;;;;;13.73;5.80;;;18.50;27.20;;;;;;5000439;28;46580;-78
2023/07/04 00:15:58;;;;;;;9.87;4.90;;;18.60;27.40;;;;;;4981345;28;46461;-81
2023/07/04 00:18:27;;;;;;;10.80;5.00;;;18.60;27.50;;;;;;4999137;28;46436;-79
2023/07/04 00:20:55;;;;;;;10.93;5.43;;;18.50;27.70;;;;;;5002829;28;46752;-79
2023/07/04 00:23:22;;;;;;;12.43;4.80;;;18.50;28.00;;;;;;4997349;28;46491;-79
2023/07/04 00:25:48;;;;;;;9.70;4.80;;;18.40;28.30;;;;;;5001574;28;46780;-79
2023/07/04 00:28:13;;;;;;;16.60;5.70;;;18.40;28.40;;;;;;4997895;28;46769;-79
2023/07/04 00:30:39;;;;;;;13.37;5.53;;;18.40;28.60;;;;;;4974156;28;46465;-78
2023/07/04 00:33:05;;;;;;;10.03;5.10;;;18.40;28.70;;;;;;4999213;28;45904;-81
2023/07/04 00:35:30;;;;;;;10.77;4.90;;;18.40;28.70;;;;;;5000274;28;46587;-80
2023/07/04 00:37:56;;;;;;;10.47;5.20;;;18.40;28.70;;;;;;5000021;28;46472;-79
2023/07/04 00:40:23;;;;;;;12.53;5.30;;;18.40;28.70;;;;;;4997229;28;45900;-78
2023/07/04 00:42:51;;;;;;;12.20;4.97;;;18.40;28.80;;;;;;4999915;28;46595;-78
2023/07/04 00:45:20;;;;;;;10.33;5.00;;;18.40;28.90;;;;;;4997621;28;46499;-80
2023/07/04 00:47:53;;;;;;;12.37;5.50;;;18.40;28.90;;;;;;4981971;28;48236;-81
2023/07/04 00:50:23;;;;;;;9.27;4.93;;;18.40;29.10;;;;;;4995704;28;46786;-79
2023/07/04 00:52:49;;;;;;;11.70;5.70;;;18.30;29.50;;;;;;4998192;28;46481;-80
2023/07/04 00:55:15;;;;;;;10.23;5.13;;;18.30;29.90;;;;;;4998831;28;46516;-79
2023/07/04 00:57:41;;;;;;;11.83;5.00;;;18.20;30.20;;;;;;4996708;28;46511;-79
2023/07/04 01:00:18;;;;;;;8.63;4.00;;;18.10;31.80;;;;;;4996245;28;48021;-79
2023/07/04 01:02:45;;;;;;;13.23;4.63;;;17.90;32.30;;;;;;4998084;28;46964;-79
2023/07/04 01:05:13;;;;;;;10.07;4.70;;;17.80;33.70;;;;;;4999910;28;46671;-80
2023/07/04 01:07:45;;;;;;;8.47;4.57;;;17.70;34.30;;;;;;4996057;28;46477;-79
2023/07/04 01:10:25;;;;;;;8.33;4.00;;;17.70;34.40;;;;;;4996945;28;45869;-81
2023/07/04 01:12:51;;;;;;;11.03;4.63;;;17.60;34.90;;;;;;4997846;28;46407;-80
2023/07/04 01:15:17;;;;;;;8.87;4.40;;;17.60;34.70;;;;;;5001349;28;46618;-81
2023/07/04 01:17:42;;;;;;;12.47;4.90;;;17.60;34.70;;;;;;4998187;28;46356;-80
2023/07/04 01:20:11;;;;;;;8.60;4.57;;;17.60;34.80;;;;;;4999800;28;45950;-81
2023/07/04 01:22:57;;;;;;;9.20;3.97;;;17.60;34.70;;;;;;5000857;28;46468;-81
2023/07/04 01:25:38;;;;;;;10.70;3.93;;;17.60;35.20;;;;;;4999605;28;46494;-81
2023/07/04 01:28:05;;;;;;;12.07;4.63;;;17.60;36.00;;;;;;4998146;28;48148;-79
2023/07/04 01:30:35;;;;;;;12.57;4.77;;;17.50;36.30;;;;;;4981713;28;46279;-79
2023/07/04 01:33:01;;;;;;;10.40;4.23;;;17.40;36.50;;;;;;4998755;28;46037;-79
2023/07/04 01:35:27;;;;;;;8.83;4.57;;;17.40;37.10;;;;;;4999660;28;46460;-80
2023/07/04 01:37:54;;;;;;;8.73;4.20;;;17.30;37.30;;;;;;4998463;28;46585;-81
2023/07/04 01:40:20;;;;;;;8.87;4.30;;;17.20;37.80;;;;;;4999321;28;46687;-79
2023/07/04 01:42:49;;;;;;;8.07;4.20;;;17.20;38.90;;;;;;5000213;28;46441;-83
2023/07/04 01:45:14;;;;;;;16.50;5.20;;;17.20;39.20;;;;;;5002949;28;46556;-81
2023/07/04 01:47:40;;;;;;;10.47;4.60;;;17.10;39.50;;;;;;5000369;28;46340;-79
2023/07/04 01:50:08;;;;;;;12.17;4.97;;;17.10;39.70;;;;;;4983937;28;46672;-79
2023/07/04 01:52:34;;;;;;;9.47;5.13;;;17.10;39.90;;;;;;4999928;28;46544;-80
2023/07/04 01:54:59;;;;;;;11.13;4.70;;;17.20;39.80;;;;;;4999724;28;46678;-79
2023/07/04 01:57:25;;;;;;;9.07;4.50;;;17.10;40.20;;;;;;4995350;28;46748;-78
2023/07/04 01:59:51;;;;;;;8.47;4.57;;;17.20;40.30;;;;;;4974300;28;46909;-80
2023/07/04 02:02:17;;;;;;;10.70;5.10;;;17.10;40.60;;;;;;4998848;28;46421;-80
2023/07/04 02:04:42;;;;;;;9.70;4.63;;;17.20;40.40;;;;;;4999770;28;46562;-81
2023/07/04 02:07:08;;;;;;;10.77;4.97;;;17.20;40.60;;;;;;4996869;28;47225;-80
2023/07/04 02:09:34;;;;;;;12.60;4.53;;;17.20;40.40;;;;;;4975334;28;46818;-79
2023/07/04 02:12:00;;;;;;;13.57;4.60;;;17.20;40.20;;;;;;4977052;28;46690;-78
2023/07/04 02:14:25;;;;;;;10.37;4.47;;;17.20;40.40;;;;;;4999203;28;46470;-79
2023/07/04 02:16:52;;;;;;;13.97;5.00;;;17.20;40.50;;;;;;4996251;28;47505;-80
2023/07/04 02:19:17;;;;;;;13.60;4.53;;;17.20;40.40;;;;;;4983998;28;46254;-78
2023/07/04 02:21:43;;;;;;;8.43;4.23;;;17.20;40.70;;;;;;4996045;28;46529;-79
2023/07/04 02:24:09;;;;;;;11.13;4.90;;;17.00;40.50;;;;;;4999735;28;46386;-80
2023/07/04 02:26:35;;;;;;;12.80;5.07;;;17.10;40.70;;;;;;4976543;28;47964;-78
2023/07/04 02:29:01;;;;;;;8.97;4.80;;;17.00;40.80;;;;;;4998683;28;46476;-79
2023/07/04 02:31:27;;;;;;;8.43;4.73;;;17.00;40.80;;;;;;4994802;28;46481;-80
2023/07/04 02:33:53;;;;;;;11.00;4.73;;;17.10;40.60;;;;;;4996048;28;46776;-80
2023/07/04 02:36:18;;;;;;;12.83;4.90;;;17.20;40.50;;;;;;4997100;28;46916;-80
2023/07/04 02:38:44;;;;;;;10.37;4.30;;;17.20;40.50;;;;;;4999322;28;46440;-80
2023/07/04 02:41:10;;;;;;;11.07;4.50;;;17.20;40.50;;;;;;4997613;28;46734;-80
2023/07/04 02:43:36;;;;;;;9.60;4.37;;;17.20;40.70;;;;;;4999234;28;46285;-80
2023/07/04 02:46:03;;;;;;;8.90;4.90;;;17.20;40.80;;;;;;4999202;28;46635;-81
2023/07/04 02:48:30;;;;;;;13.13;5.20;;;17.20;41.00;;;;;;4980477;28;46420;-80
2023/07/04 02:50:55;;;;;;;9.03;5.03;;;17.20;41.10;;;;;;4998129;28;46547;-81
2023/07/04 02:53:22;;;;;;;10.30;5.20;;;17.20;41.10;;;;;;4983952;28;46429;-81
2023/07/04 02:55:48;;;;;;;13.83;4.93;;;17.20;41.30;;;;;;5000996;28;46745;-79
2023/07/04 02:58:14;;;;;;;18.33;4.80;;;17.20;41.50;;;;;;4995194;28;46514;-80
2023/07/04 03:00:40;;;;;;;16.13;5.40;;;17.20;41.90;;;;;;5000549;28;45860;-81
2023/07/04 03:03:07;;;;;;;13.90;5.00;;;17.20;42.10;;;;;;5001811;28;46576;-79
2023/07/04 03:05:33;;;;;;;12.30;5.37;;;17.10;42.20;;;;;;5000084;28;46938;-80
2023/07/04 03:07:58;;;;;;;14.07;5.37;;;17.20;42.40;;;;;;4998104;28;46793;-79
2023/07/04 03:10:24;;;;;;;10.73;4.73;;;17.10;42.50;;;;;;5002616;28;46662;-81
2023/07/04 03:12:50;;;;;;;12.47;5.07;;;17.10;42.70;;;;;;5003232;28;46777;-80
2023/07/04 03:15:15;;;;;;;10.30;4.77;;;17.00;43.00;;;;;;4980363;28;48958;-82
2023/07/04 03:17:41;;;;;;;12.97;6.10;;;17.00;43.20;;;;;;4979788;28;46406;-77
2023/07/04 03:20:10;;;;;;;15.60;6.10;;;17.00;43.50;;;;;;4996124;28;46482;-81
2023/07/04 03:22:37;;;;;;;14.87;5.70;;;17.00;43.80;;;;;;5002191;28;46497;-82
2023/07/04 03:25:03;;;;;;;13.60;6.00;;;17.10;43.80;;;;;;5000552;28;46717;-80
2023/07/04 03:27:28;;;;;;;19.40;5.67;;;17.10;44.00;;;;;;4999309;28;45857;-79
2023/07/04 03:29:54;;;;;;;17.97;5.70;;;17.00;44.00;;;;;;5002557;28;45991;-80
2023/07/04 03:32:19;;;;;;;13.00;5.77;;;17.00;44.90;;;;;;4999938;28;46550;-79
2023/07/04 03:34:46;;;;;;;14.77;5.83;;;16.90;44.80;;;;;;5006728;28;46390;-81
2023/07/04 03:37:11;;;;;;;13.10;5.20;;;16.90;44.80;;;;;;5000588;28;46500;-80
2023/07/04 03:39:37;;;;;;;18.20;5.87;;;17.00;44.90;;;;;;4997446;28;46538;-80
2023/07/04 03:42:02;;;;;;;14.07;6.00;;;16.90;44.90;;;;;;4999363;28;46781;-79
2023/07/04 03:44:28;;;;;;;16.27;5.50;;;16.90;44.90;;;;;;4999682;28;46819;-78
2023/07/04 03:46:54;;;;;;;14.73;6.93;;;16.90;45.40;;;;;;5000124;28;46495;-78
2023/07/04 03:49:19;;;;;;;11.93;5.37;;;16.90;45.30;;;;;;4996514;28;46860;-77
2023/07/04 03:51:45;;;;;;;9.80;5.40;;;16.90;45.40;;;;;;5000577;28;46651;-78
2023/07/04 03:54:10;;;;;;;10.83;5.67;;;16.90;45.60;;;;;;4980435;28;48401;-80
2023/07/04 03:56:36;;;;;;;13.03;5.43;;;16.80;45.80;;;;;;4980284;28;46792;-78
2023/07/04 03:59:01;;;;;;;13.20;4.67;;;16.90;46.20;;;;;;4999326;28;46735;-78
2023/07/04 04:01:27;;;;;;;18.37;4.80;;;16.80;46.10;;;;;;4999075;28;46554;-78
2023/07/04 04:03:53;;;;;;;10.03;4.90;;;16.80;46.20;;;;;;4997048;28;46461;-79
2023/07/04 04:06:20;;;;;;;9.33;4.40;;;16.80;46.30;;;;;;4998757;28;46058;-82
2023/07/04 04:08:45;;;;;;;12.03;4.47;;;16.90;46.30;;;;;;4997430;28;46392;-81
2023/07/04 04:11:11;;;;;;;17.80;4.50;;;16.80;46.40;;;;;;4980537;28;47031;-82
2023/07/04 04:13:36;;;;;;;12.37;4.20;;;17.00;46.60;;;;;;4982207;28;48214;-83
2023/07/04 04:16:02;;;;;;;11.00;4.23;;;16.80;46.50;;;;;;5001264;28;46460;-80
2023/07/04 04:18:28;;;;;;;14.20;3.70;;;16.90;46.60;;;;;;5000858;28;46777;-80
2023/07/04 04:20:54;;;;;;;9.47;4.27;;;16.90;46.50;;;;;;5000925;28;46444;-79
2023/07/04 04:23:19;;;;;;;11.93;4.37;;;16.90;46.30;;;;;;4997191;28;46436;-80
2023/07/04 04:25:45;;;;;;;8.83;3.60;;;17.00;46.40;;;;;;5002394;28;45905;-80
2023/07/04 04:28:12;;;;;;;6.37;3.50;;;17.00;46.50;;;;;;4980457;28;46558;-79
2023/07/04 04:30:38;;;;;;;12.30;3.63;;;17.10;46.20;;;;;;4978872;28;46748;-77
2023/07/04 04:33:04;;;;;;;6.17;3.40;;;17.20;46.10;;;;;;5000433;28;46749;-79
2023/07/04 04:35:33;;;;;;;6.53;3.50;;;17.30;45.50;;;;;;5001312;28;47022;-81
2023/07/04 04:37:59;;;;;;;6.83;4.00;;;17.40;45.30;;;;;;5001584;28;45938;-82
2023/07/04 04:40:25;;;;;;;8.07;2.90;;;17.50;45.30;;;;;;4997711;28;46511;-79
2023/07/04 04:42:53;;;;;;;7.40;3.20;;;17.70;45.50;;;;;;5000951;28;46975;-79
2023/07/04 04:45:19;;;;;;;8.43;3.30;;;17.90;45.40;;;;;;4986098;28;46831;-79
2023/07/04 04:47:52;;;;;;;10.47;3.50;;;18.20;44.20;;;;;;4999818;28;46486;-79
2023/07/04 04:50:30;;;;;;;8.13;2.57;;;19.50;42.20;;;;;;5002954;28;46837;-78
2023/07/04 04:52:57;;;;;;;7.63;3.13;;;21.40;38.20;;;;;;4999936;28;46760;-81
2023/07/04 04:55:23;;;;;;;6.60;2.53;;;23.20;33.20;;;;;;4997101;28;46504;-82
2023/07/04 04:57:49;;;;;;;4.20;2.30;;;24.70;28.60;;;;;;4995231;28;46432;-83
2023/07/04 05:00:16;;;;;;;8.33;2.90;;;26.00;25.90;;;;;;4999520;28;46498;-82
2023/07/04 05:02:44;;;;;;;5.40;2.70;;;27.00;22.80;;;;;;4999640;28;46619;-81
2023/07/04 05:05:11;;;;;;;10.47;2.40;;;26.70;22.20;;;;;;4998463;28;46530;-83
2023/07/04 05:07:37;;;;;;;4.23;2.17;;;25.50;24.10;;;;;;5000300;28;47314;-82
2023/07/04 05:10:03;;;;;;;5.00;2.30;;;24.10;25.80;;;;;;4984651;28;46520;-81
2023/07/04 05:12:29;;;;;;;7.27;2.90;;;23.20;27.70;;;;;;4975148;28;48110;-82
2023/07/04 05:14:55;;;;;;;4.67;2.20;;;22.50;28.90;;;;;;5000006;28;46134;-83
2023/07/04 05:17:20;;;;;;;9.40;2.43;;;22.00;29.50;;;;;;5001059;28;46491;-81
2023/07/04 05:19:50;;;;;;;8.10;3.00;;;21.80;29.80;;;;;;4999264;28;46627;-80
2023/07/04 05:22:19;;;;;;;5.13;2.33;;;21.40;30.00;;;;;;4998905;28;46301;-83
2023/07/04 05:24:45;;;;;;;4.30;2.20;;;21.10;30.50;;;;;;4994572;28;46309;-80
2023/07/04 05:27:11;;;;;;;5.97;2.90;;;20.90;30.90;;;;;;5001192;28;46481;-79
2023/07/04 05:29:36;;;;;;;7.07;2.87;;;20.70;31.50;;;;;;4996006;28;46368;-80
2023/07/04 05:32:02;;;;;;;7.27;2.83;;;20.50;31.90;;;;;;4993974;28;46626;-82
2023/07/04 05:34:27;;;;;;;5.20;2.70;;;20.20;32.10;;;;;;4999229;28;46493;-79
2023/07/04 05:36:54;;;;;;;9.87;2.90;;;20.10;32.50;;;;;;4996521;28;46949;-80
2023/07/04 05:39:19;;;;;;;4.70;2.50;;;20.00;32.70;;;;;;4980783;28;46788;-78
2023/07/04 05:41:45;;;;;;;6.20;3.30;;;20.10;32.40;;;;;;4994938;28;46619;-79
2023/07/04 05:44:11;;;;;;;4.80;2.50;;;20.30;32.20;;;;;;4999505;28;46858;-80
2023/07/04 05:46:37;;;;;;;6.77;2.80;;;20.70;31.40;;;;;;4996574;28;46502;-80
2023/07/04 05:49:04;;;;;;;5.27;2.40;;;22.10;29.20;;;;;;4997520;28;46753;-80
2023/07/04 05:51:30;;;;;;;7.17;2.43;;;23.80;26.10;;;;;;4994586;28;46475;-81
2023/07/04 05:53:56;;;;;;;5.60;2.80;;;25.80;22.50;;;;;;4997429;28;46389;-81
2023/07/04 05:56:30;;;;;;;9.93;2.50;;;26.70;20.10;;;;;;4993445;28;46631;-79
2023/07/04 05:58:57;;;;;;;4.60;2.50;;;26.10;20.90;;;;;;4980574;28;45924;-81
2023/07/04 06:01:27;;;;;;;6.00;2.77;;;25.50;22.70;;;;;;4994536;28;49321;-83
2023/07/04 06:03:53;;;;;;;6.73;2.30;;;25.30;24.10;;;;;;5000598;28;46667;-81
2023/07/04 06:06:30;;;;;;;7.17;2.97;;;24.80;24.90;;;;;;4998695;28;46489;-77
2023/07/04 06:08:57;;;;;;;4.20;1.93;;;24.20;25.40;;;;;;4995130;28;46436;-82
2023/07/04 06:11:26;;;;;;;4.83;2.50;;;23.70;25.00;;;;;;4994387;28;47997;-79
2023/07/04 06:13:53;;;;;;;5.90;3.07;;;23.30;25.50;;;;;;4983236;28;46440;-81
2023/07/04 06:16:19;;;;;;;6.63;2.90;;;23.00;25.80;;;;;;4999647;28;46822;-79
2023/07/04 06:18:46;;;;;;;8.43;3.30;;;22.80;26.70;;;;;;4980365;28;46470;-80
2023/07/04 06:21:23;;;;;;;6.10;2.60;;;22.50;25.90;;;;;;4995700;28;46707;-79
2023/07/04 06:23:50;;;;;;;8.00;2.90;;;22.20;26.20;;;;;;4999875;28;46524;-79
2023/07/04 06:26:16;;;;;;;5.87;2.83;;;22.00;26.30;;;;;;4998852;28;46626;-80
2023/07/04 06:28:42;;;;;;;9.87;3.30;;;21.80;26.60;;;;;;4993200;28;46495;-81
2023/07/04 06:31:12;;;;;;;5.87;2.80;;;21.50;26.80;;;;;;4980960;28;48503;-82
2023/07/04 06:33:38;;;;;;;5.90;2.53;;;21.30;27.10;;;;;;4996496;28;46472;-79
2023/07/04 06:36:06;;;;;;;7.03;2.80;;;21.10;27.40;;;;;;4999031;28;46555;-82
2023/07/04 06:38:32;;;;;;;6.53;2.57;;;21.10;27.70;;;;;;4979159;28;46533;-82
2023/07/04 06:41:00;;;;;;;6.40;2.83;;;21.20;27.40;;;;;;4995873;28;47179;-83
2023/07/04 06:43:27;;;;;;;7.40;3.23;;;21.30;27.10;;;;;;4982845;28;46455;-81
2023/07/04 06:45:55;;;;;;;12.67;3.40;;;21.30;27.10;;;;;;4999135;28;46115;-80
2023/07/04 06:48:25;;;;;;;6.83;2.80;;;21.20;27.30;;;;;;4998464;28;46956;-81
2023/07/04 06:51:02;;;;;;;7.63;3.07;;;21.20;27.60;;;;;;4996608;28;46414;-79
2023/07/04 06:53:29;;;;;;;6.67;3.37;;;21.10;27.80;;;;;;4999412;28;46749;-79
2023/07/04 06:56:07;;;;;;;6.43;2.40;;;21.20;27.50;;;;;;4998928;28;46534;-81
2023/07/04 06:58:37;;;;;;;9.40;2.70;;;21.40;27.10;;;;;;4998618;28;46413;-82
2023/07/04 07:01:04;;;;;;;6.20;2.60;;;21.60;26.70;;;;;;5000917;28;47015;-82
2023/07/04 07:03:31;;;;;;;7.37;2.60;;;21.80;26.50;;;;;;5001338;28;46739;-85
2023/07/04 07:05:56;;;;;;;7.70;2.43;;;22.10;26.10;;;;;;5002804;28;46736;-80
2023/07/04 07:08:22;;;;;;;7.00;2.90;;;22.10;25.50;;;;;;5001406;28;46468;-80
2023/07/04 07:10:57;;;;;;;7.30;3.03;;;22.20;25.20;;;;;;5004081;28;47231;-79
2023/07/04 07:13:24;;;;;;;4.23;2.10;;;22.20;25.50;;;;;;5004566;28;46532;-80
2023/07/04 07:15:50;;;;;;;8.13;2.90;;;22.20;25.70;;;;;;5004400;28;46459;-82
2023/07/04 07:18:15;;;;;;;4.83;2.33;;;22.30;25.80;;;;;;4998622;28;46559;-77
2023/07/04 07:20:41;;;;;;;5.97;2.63;;;22.60;25.40;;;;;;4973079;28;48985;-80
2023/07/04 07:23:07;;;;;;;5.23;2.30;;;23.10;24.60;;;;;;5003942;28;46468;-79
2023/07/04 07:25:32;;;;;;;6.10;2.47;;;23.60;24.10;;;;;;4982771;28;46479;-80
2023/07/04 07:27:58;;;;;;;4.60;2.60;;;24.10;23.10;;;;;;4998598;28;46632;-81
2023/07/04 07:30:23;;;;;;;6.33;2.50;;;24.90;22.00;;;;;;4998449;28;47313;-80
2023/07/04 07:32:49;;;;;;;5.30;2.63;;;25.00;21.00;;;;;;4979705;28;46442;-82
2023/07/04 07:35:15;;;;;;;6.63;2.43;;;25.00;20.90;;;;;;4999631;28;46173;-80
2023/07/04 07:37:41;;;;;;;7.50;3.10;;;24.70;21.20;;;;;;4998406;28;46534;-80
2023/07/04 07:40:07;;;;;;;7.97;2.60;;;24.40;21.50;;;;;;4996026;28;47107;-79
2023/07/04 07:42:35;;;;;;;7.70;2.70;;;24.00;21.90;;;;;;4982021;28;47283;-82
2023/07/04 07:45:00;;;;;;;6.83;2.60;;;23.70;22.70;;;;;;4999063;28;46463;-79
2023/07/04 07:47:26;;;;;;;7.00;2.90;;;23.50;22.80;;;;;;4996303;28;45898;-81
2023/07/04 07:49:51;;;;;;;8.10;2.57;;;23.40;23.10;;;;;;4998385;28;46591;-79
2023/07/04 07:52:17;;;;;;;11.33;3.00;;;23.20;23.30;;;;;;4999378;28;45817;-79
2023/07/04 07:54:42;;;;;;;8.13;3.20;;;22.90;23.80;;;;;;4999401;28;46508;-80
2023/07/04 07:57:09;;;;;;;7.43;3.00;;;22.70;24.30;;;;;;4999327;28;47366;-80
2023/07/04 07:59:34;;;;;;;7.10;2.80;;;22.60;24.30;;;;;;4979274;28;48083;-80
2023/07/04 08:02:01;;;;;;;7.83;3.50;;;22.60;24.40;;;;;;4977950;28;47321;-80
2023/07/04 08:04:26;;;;;;;6.90;3.10;;;22.50;24.20;;;;;;4982721;28;46759;-79
2023/07/04 08:06:52;;;;;;;8.40;3.43;;;22.90;23.80;;;;;;4998873;28;46600;-80
2023/07/04 08:09:19;;;;;;;8.70;3.30;;;23.40;23.00;;;;;;5002266;28;46524;-81
2023/07/04 08:11:45;;;;;;;7.80;2.80;;;23.20;22.50;;;;;;5003595;28;46587;-80
2023/07/04 08:14:15;;;;;;;10.60;3.07;;;23.60;22.10;;;;;;5002887;28;46547;-83
2023/07/04 08:16:49;;;;;;;7.90;3.43;;;23.70;21.30;;;;;;4998335;28;46526;-81
2023/07/04 08:19:16;;;;;;;6.50;2.97;;;24.20;20.20;;;;;;5002736;28;46500;-83
2023/07/04 08:21:42;;;;;;;13.60;4.37;;;24.70;19.00;;;;;;4982935;28;46706;-80
2023/07/04 08:24:10;;;;;;;11.60;3.50;;;24.60;17.60;;;;;;5003683;28;46456;-76
2023/07/04 08:26:38;;;;;;;8.77;3.40;;;24.60;16.70;;;;;;4982115;28;46559;-82
2023/07/04 08:29:05;;;;;;;7.20;3.73;;;25.00;15.70;;;;;;4994072;28;46924;-82
2023/07/04 08:31:31;;;;;;;13.20;3.70;;;25.10;14.90;;;;;;4994380;28;46461;-81
2023/07/04 08:33:57;;;;;;;7.00;3.50;;;25.80;14.10;;;;;;4996297;28;46415;-81
2023/07/04 08:36:22;;;;;;;8.10;4.40;;;26.00;13.40;;;;;;4981535;28;46500;-82
2023/07/04 08:38:50;;;;;;;10.37;3.90;;;26.30;12.70;;;;;;4998781;28;47460;-79
2023/07/04 08:41:38;;;;;;;7.03;3.07;;;26.60;11.70;;;;;;4997427;28;46499;-81
2023/07/04 08:44:10;;;;;;;7.90;3.20;;;26.60;11.30;;;;;;4980231;28;46620;-80
2023/07/04 08:46:42;;;;;;;8.67;3.37;;;26.70;11.30;;;;;;4997991;28;46717;-79
2023/07/04 08:49:34;;;;;;;6.50;3.33;;;26.80;10.90;;;;;;4994332;28;46763;-82
2023/07/04 08:52:06;;;;;;;8.23;3.40;;;26.50;10.10;;;;;;4996648;28;46472;-82
2023/07/04 08:54:34;;;;;;;11.67;4.13;;;25.80;10.90;;;;;;4997432;28;46514;-80
2023/07/04 08:57:19;;;;;;;8.00;3.67;;;25.40;11.70;;;;;;4996925;28;46728;-79
2023/07/04 08:59:50;;;;;;;7.03;3.60;;;24.70;12.40;;;;;;4996622;28;46511;-79
2023/07/04 09:02:43;;;;;;;9.50;3.30;;;24.60;12.80;;;;;;4975816;28;46510;-80
2023/07/04 09:05:30;;;;;;;11.13;4.10;;;24.30;12.50;;;;;;5001990;28;46545;-82
2023/07/04 09:08:09;;;;;;;8.90;3.90;;;24.30;12.40;;;;;;4981971;28;46549;-81
2023/07/04 09:10:41;;;;;;;7.90;3.57;;;24.60;12.00;;;;;;4996767;28;46822;-81
2023/07/04 09:13:11;;;;;;;10.97;4.00;;;24.60;12.20;;;;;;4979694;28;47177;-80
2023/07/04 09:15:42;;;;;;;9.47;4.03;;;24.60;12.20;;;;;;4996956;28;46550;-81
2023/07/04 09:18:29;;;;;;;8.50;4.07;;;25.10;12.20;;;;;;4995407;28;46130;-81
2023/07/04 09:21:02;;;;;;;8.50;3.40;;;25.80;11.00;;;;;;4974967;28;48149;-81
2023/07/04 09:23:29;;;;;;;10.57;4.03;;;26.20;10.50;;;;;;4981486;28;46638;-79
2023/07/04 09:25:57;;;;;;;9.93;3.90;;;26.80;9.60;;;;;;4995245;28;46945;-80
2023/07/04 09:28:23;;;;;;;9.73;3.73;;;26.80;9.40;;;;;;4996440;28;46481;-80
2023/07/04 09:30:52;;;;;;;8.03;3.37;;;26.60;9.80;;;;;;4994555;28;47795;-79
2023/07/04 09:33:21;;;;;;;8.43;3.67;;;26.40;10.40;;;;;;4981444;28;46656;-78
2023/07/04 09:35:47;;;;;;;9.80;3.90;;;26.30;10.80;;;;;;4997109;28;46532;-84
2023/07/04 09:38:13;;;;;;;10.20;4.00;;;26.30;10.70;;;;;;4984023;28;46709;-81
2023/07/04 09:40:48;;;;;;;9.00;4.43;;;25.90;10.50;;;;;;4996869;28;46617;-81
2023/07/04 09:43:32;;;;;;;10.60;4.13;;;25.70;10.30;;;;;;4986640;28;47089;-83
2023/07/04 09:46:20;;;;;;;13.37;3.80;;;25.60;10.60;;;;;;5003198;28;46507;-81
2023/07/04 09:48:46;;;;;;;9.20;4.00;;;25.40;10.70;;;;;;4979721;28;46037;-82
2023/07/04 09:51:16;;;;;;;16.27;4.23;;;25.20;11.10;;;;;;4997271;28;47296;-78
2023/07/04 09:53:41;;;;;;;11.10;4.40;;;25.10;11.50;;;;;;4999261;28;46452;-82
2023/07/04 09:56:07;;;;;;;8.27;4.40;;;25.30;11.40;;;;;;4998331;28;46468;-81
2023/07/04 09:58:34;;;;;;;13.90;4.57;;;25.40;10.90;;;;;;4995902;28;46396;-79
2023/07/04 10:01:16;;;;;;;10.40;4.50;;;25.70;10.40;;;;;;4997240;28;46417;-80
2023/07/04 10:03:45;;;;;;;9.57;4.07;;;25.70;9.50;;;;;;4997639;28;46608;-79
2023/07/04 10:06:11;;;;;;;8.33;3.87;;;25.30;10.20;;;;;;4982009;28;46446;-80
2023/07/04 10:08:50;;;;;;;9.10;3.73;;;25.10;10.30;;;;;;4994087;28;46616;-81
2023/07/04 10:11:34;;;;;;;10.77;4.07;;;24.80;10.40;;;;;;4996623;28;46566;-81
2023/07/04 10:14:04;;;;;;;6.93;3.90;;;24.80;10.60;;;;;;4998893;28;46543;-81
2023/07/04 10:16:29;;;;;;;11.20;4.80;;;25.10;9.90;;;;;;4996370;28;46724;-81
2023/07/04 10:19:14;;;;;;;9.40;4.30;;;25.50;9.50;;;;;;4996318;28;46424;-81
2023/07/04 10:21:51;;;;;;;12.43;4.00;;;25.10;9.20;;;;;;4980625;28;48367;-80
2023/07/04 10:24:21;;;;;;;7.83;3.80;;;25.00;9.90;;;;;;4981712;28;46460;-81
2023/07/04 10:26:54;;;;;;;15.37;4.47;;;25.20;9.70;;;;;;4993972;28;46535;-81
2023/07/04 10:29:30;;;;;;;7.27;4.00;;;25.70;9.60;;;;;;4997476;28;46415;-81
2023/07/04 10:32:01;;;;;;;8.50;4.03;;;26.30;8.80;;;;;;4994525;28;46848;-82
2023/07/04 10:34:28;;;;;;;9.07;3.93;;;26.70;7.80;;;;;;4998409;28;46433;-81
2023/07/04 10:36:56;;;;;;;9.00;4.60;;;26.70;7.90;;;;;;4996284;28;46867;-80
2023/07/04 10:39:22;;;;;;;8.13;4.40;;;27.10;7.20;;;;;;4995459;28;46227;-80
2023/07/04 10:42:20;;;;;;;10.53;4.00;;;27.40;6.50;;;;;;5002217;28;46543;-80
2023/07/04 10:44:51;;;;;;;7.30;3.43;;;27.80;5.80;;;;;;4968285;28;46616;-81
2023/07/04 10:47:27;;;;;;;10.10;4.30;;;27.90;5.60;;;;;;5001067;28;46651;-81
2023/07/04 10:49:59;;;;;;;9.00;3.87;;;27.80;5.40;;;;;;5001660;28;46487;-81
2023/07/04 10:52:34;;;;;;;9.90;3.23;;;27.60;5.90;;;;;;4999344;28;47392;-76
2023/07/04 10:55:01;;;;;;;11.00;4.10;;;27.60;5.90;;;;;;5002220;28;46561;-81
2023/07/04 10:57:42;;;;;;;8.60;3.90;;;27.60;6.20;;;;;;4985673;28;46993;-81
2023/07/04 11:00:27;;;;;;;8.77;3.93;;;27.10;5.90;;;;;;4985864;28;46429;-79
2023/07/04 11:02:57;;;;;;;11.33;3.67;;;26.80;6.50;;;;;;5000753;28;46421;-81
2023/07/04 11:05:37;;;;;;;9.13;3.60;;;26.70;6.80;;;;;;5003677;28;46491;-83
2023/07/04 11:08:08;;;;;;;6.77;3.50;;;26.70;6.90;;;;;;5002346;28;46847;-82
2023/07/04 11:10:41;;;;;;;14.63;4.00;;;26.70;6.40;;;;;;4999883;28;46536;-80
2023/07/04 11:13:07;;;;;;;11.27;4.03;;;26.70;6.40;;;;;;5001986;28;47772;-80
2023/07/04 11:15:38;;;;;;;6.90;3.27;;;26.80;6.10;;;;;;5001906;28;46498;-82
2023/07/04 11:18:05;;;;;;;9.80;3.70;;;26.70;5.60;;;;;;4978518;28;46705;-80
2023/07/04 11:20:40;;;;;;;6.83;3.37;;;26.80;5.90;;;;;;5004631;28;46855;-78
2023/07/04 11:23:14;;;;;;;11.27;4.70;;;27.20;5.30;;;;;;5003273;28;47943;-81
2023/07/04 11:25:49;;;;;;;7.27;2.90;;;27.50;4.90;;;;;;5004022;28;46409;-81
2023/07/04 11:28:41;;;;;;;9.73;3.47;;;27.60;4.90;;;;;;4999736;28;46578;-81
2023/07/04 11:31:18;;;;;;;6.83;3.00;;;27.40;4.70;;;;;;5003951;28;46439;-83
2023/07/04 11:33:53;;;;;;;8.30;3.00;;;26.70;6.00;;;;;;5003285;28;47317;-83
2023/07/04 11:36:32;;;;;;;9.60;3.80;;;26.00;6.40;;;;;;4983523;28;46795;-81
2023/07/04 11:38:59;;;;;;;6.90;3.00;;;25.50;6.70;;;;;;4983293;28;46822;-80
2023/07/04 11:41:26;;;;;;;8.80;3.73;;;25.00;7.00;;;;;;4998909;28;46464;-80
2023/07/04 11:43:53;;;;;;;9.20;3.37;;;25.10;7.90;;;;;;4994305;28;46561;-79
2023/07/04 11:46:24;;;;;;;8.10;2.90;;;24.80;7.90;;;;;;4998807;28;46865;-77
2023/07/04 11:48:54;;;;;;;9.53;3.13;;;24.90;8.20;;;;;;4997203;28;46454;-81
2023/07/04 11:51:22;;;;;;;9.83;4.50;;;24.90;7.90;;;;;;4999605;28;46520;-80
2023/07/04 11:53:57;;;;;;;10.57;3.20;;;25.20;8.00;;;;;;4998103;28;46851;-82
2023/07/04 11:56:23;;;;;;;10.47;4.00;;;25.40;7.90;;;;;;4983106;28;46638;-81
2023/07/04 11:59:16;;;;;;;6.77;3.00;;;25.80;7.40;;;;;;4981969;28;46505;-82
2023/07/04 12:01:51;;;;;;;6.90;3.17;;;26.20;6.40;;;;;;4998505;28;46527;-80
2023/07/04 12:04:44;;;;;;;9.80;2.90;;;26.40;5.60;;;;;;4999627;28;46834;-81
2023/07/04 12:07:18;;;;;;;7.83;2.67;;;26.20;7.30;;;;;;4983887;28;45920;-81
2023/07/04 12:09:52;;;;;;;7.53;3.40;;;26.10;6.40;;;;;;4998768;28;46387;-80
2023/07/04 12:12:25;;;;;;;7.20;3.03;;;26.10;6.50;;;;;;4993094;28;46544;-81
2023/07/04 12:15:06;;;;;;;5.83;3.07;;;26.00;6.50;;;;;;5000255;28;46396;-80
2023/07/04 12:17:33;;;;;;;6.80;3.57;;;26.20;6.30;;;;;;4978693;28;46951;-80
2023/07/04 12:20:08;;;;;;;6.07;3.20;;;26.70;6.20;;;;;;4999283;28;46781;-78
2023/07/04 12:22:35;;;;;;;10.10;3.47;;;26.80;5.30;;;;;;4995955;28;46504;-79
2023/07/04 12:25:09;;;;;;;5.97;2.70;;;26.20;5.90;;;;;;4998841;28;46365;-78
2023/07/04 12:27:34;;;;;;;8.47;2.60;;;26.10;6.40;;;;;;4998409;28;46451;-79
2023/07/04 12:30:00;;;;;;;4.80;2.53;;;26.30;6.20;;;;;;4996864;28;46730;-81
2023/07/04 12:32:26;;;;;;;6.87;3.13;;;26.70;5.70;;;;;;4996355;28;46373;-80
2023/07/04 12:34:54;;;;;;;6.70;2.70;;;27.00;5.30;;;;;;4999144;28;46274;-79
2023/07/04 12:37:23;;;;;;;5.73;2.70;;;27.20;5.10;;;;;;4999903;28;46436;-79
2023/07/04 12:39:49;;;;;;;5.60;2.37;;;27.50;4.80;;;;;;4998639;28;46745;-79
2023/07/04 12:42:38;;;;;;;4.33;2.40;;;27.30;4.70;;;;;;4993615;28;46968;-80
2023/07/04 12:45:15;;;;;;;4.83;2.40;;;27.20;4.60;;;;;;4999013;28;47653;-81
2023/07/04 12:47:42;;;;;;;5.80;2.50;;;27.30;4.70;;;;;;4981466;28;46554;-81
2023/07/04 12:50:09;;;;;;;6.10;2.33;;;27.60;4.90;;;;;;5000014;28;47007;-81
2023/07/04 12:52:37;;;;;;;8.00;2.70;;;27.40;3.90;;;;;;4983551;28;46901;-80
2023/07/04 12:55:06;;;;;;;7.80;2.47;;;27.40;4.50;;;;;;5002473;28;47198;-81